createdAt,value
2023-04-18T00:01:29.931Z,5.48
2023-04-18T00:03:57.858Z,5.40
2023-04-18T00:06:27.611Z,5.30
2023-04-18T00:08:55.852Z,5.30
2023-04-18T00:11:22.832Z,5.30
2023-04-18T00:13:49.254Z,5.36
2023-04-18T00:16:17.925Z,5.30
2023-04-18T00:18:44.366Z,5.30
2023-04-18T00:21:11.830Z,5.20
2023-04-18T00:23:39.399Z,5.20
2023-04-18T00:26:06.249Z,5.20
2023-04-18T00:28:32.717Z,5.20
2023-04-18T00:30:59.560Z,5.12
2023-04-18T00:33:26.808Z,5.10
2023-04-18T00:35:53.888Z,5.10
2023-04-18T00:38:20.315Z,5.10
2023-04-18T00:40:46.791Z,5.10
2023-04-18T00:43:14.244Z,5.10
2023-04-18T00:45:40.988Z,5.10
2023-04-18T00:48:08.634Z,5.08
2023-04-18T00:50:37.720Z,5.00
2023-04-18T00:53:07.587Z,4.94
2023-04-18T00:55:37.423Z,4.98
2023-04-18T00:58:05.639Z,4.90
2023-04-18T01:00:32.197Z,4.90
2023-04-18T01:03:00.617Z,4.96
2023-04-18T01:05:28.480Z,4.90
2023-04-18T01:08:00.359Z,4.90
2023-04-18T01:10:30.788Z,4.90
2023-04-18T01:13:15.792Z,4.80
2023-04-18T01:15:47.450Z,4.80
2023-04-18T01:18:16.292Z,4.70
2023-04-18T01:20:52.460Z,4.66
2023-04-18T01:23:20.975Z,4.60
2023-04-18T01:25:51.317Z,4.70
2023-04-18T01:28:24.200Z,4.70
2023-04-18T01:30:50.720Z,4.70
2023-04-18T01:33:17.566Z,4.70
2023-04-18T01:35:44.295Z,4.70
2023-04-18T01:38:11.150Z,4.66
2023-04-18T01:40:37.619Z,4.60
2023-04-18T01:43:06.789Z,4.60
2023-04-18T01:45:33.340Z,4.54
2023-04-18T01:47:59.817Z,4.50
2023-04-18T01:50:26.403Z,4.50
2023-04-18T01:52:52.916Z,4.50
2023-04-18T01:55:20.506Z,4.50
2023-04-18T01:57:50.247Z,4.50
2023-04-18T02:00:17.622Z,4.50
2023-04-18T02:02:45.881Z,4.40
2023-04-18T02:05:16.033Z,4.40
2023-04-18T02:07:44.850Z,4.46
2023-04-18T02:10:11.348Z,4.50
2023-04-18T02:12:38.278Z,4.50
2023-04-18T02:15:06.465Z,4.50
2023-04-18T02:17:35.689Z,4.50
2023-04-18T02:20:02.217Z,4.50
2023-04-18T02:22:29.868Z,4.46
2023-04-18T02:24:56.488Z,4.48
2023-04-18T02:27:22.992Z,4.48
2023-04-18T02:29:49.866Z,4.42
2023-04-18T02:32:17.139Z,4.50
2023-04-18T02:34:47.457Z,4.50
2023-04-18T02:37:14.519Z,4.50
2023-04-18T02:39:42.044Z,4.52
2023-04-18T02:42:08.912Z,4.56
2023-04-18T02:44:37.088Z,4.60
2023-04-18T02:47:03.823Z,4.60
2023-04-18T02:49:31.868Z,4.60
2023-04-18T02:51:58.963Z,4.60
2023-04-18T02:54:25.716Z,4.50
2023-04-18T02:56:54.450Z,4.50
2023-04-18T02:59:21.081Z,4.50
2023-04-18T03:01:49.134Z,4.44
2023-04-18T03:04:16.565Z,4.48
2023-04-18T03:06:48.090Z,4.50
2023-04-18T03:09:16.698Z,4.40
2023-04-18T03:11:43.826Z,4.44
2023-04-18T03:14:11.358Z,4.40
2023-04-18T03:16:38.685Z,4.40
2023-04-18T03:19:09.307Z,4.34
2023-04-18T03:21:36.251Z,4.30
2023-04-18T03:24:03.152Z,4.30
2023-04-18T03:26:30.545Z,4.30
2023-04-18T03:28:57.549Z,4.30
2023-04-18T03:31:26.057Z,4.40
2023-04-18T03:33:52.875Z,4.40
2023-04-18T03:36:24.934Z,4.40
2023-04-18T03:38:52.307Z,4.40
2023-04-18T03:41:19.043Z,4.34
2023-04-18T03:43:45.807Z,4.30
2023-04-18T03:46:12.720Z,4.30
2023-04-18T03:48:40.024Z,4.22
2023-04-18T03:51:06.937Z,4.20
2023-04-18T03:53:33.932Z,4.20
2023-04-18T03:56:01.582Z,4.20
2023-04-18T03:58:28.482Z,4.20
2023-04-18T04:00:59.542Z,4.10
2023-04-18T04:03:27.335Z,4.10
2023-04-18T04:05:55.343Z,4.10
2023-04-18T04:08:23.315Z,4.10
2023-04-18T04:10:51.240Z,4.10
2023-04-18T04:13:21.461Z,4.10
2023-04-18T04:15:48.321Z,4.10
2023-04-18T04:18:18.027Z,4.10
2023-04-18T04:20:47.763Z,4.00
2023-04-18T04:23:15.789Z,4.00
2023-04-18T04:25:44.961Z,4.00
2023-04-18T04:28:12.756Z,3.94
2023-04-18T04:30:41.061Z,3.90
2023-04-18T04:33:08.546Z,3.90
2023-04-18T04:35:36.251Z,3.90
2023-04-18T04:38:04.218Z,3.96
2023-04-18T04:40:31.146Z,4.00
2023-04-18T04:43:01.372Z,3.98
2023-04-18T04:45:33.272Z,3.90
2023-04-18T04:48:00.372Z,4.00
2023-04-18T04:50:27.537Z,4.00
2023-04-18T04:52:54.359Z,4.00
2023-04-18T04:55:22.179Z,4.02
2023-04-18T04:57:49.150Z,4.10
2023-04-18T05:00:20.567Z,4.10
2023-04-18T05:02:55.703Z,4.10
2023-04-18T05:05:24.151Z,4.20
2023-04-18T05:07:50.957Z,4.20
2023-04-18T05:10:20.542Z,4.22
2023-04-18T05:12:48.765Z,4.30
2023-04-18T05:15:19.859Z,4.30
2023-04-18T05:17:46.745Z,4.30
2023-04-18T05:20:15.508Z,4.30
2023-04-18T05:22:42.213Z,4.30
2023-04-18T05:25:11.833Z,4.30
2023-04-18T05:27:40.146Z,4.40
2023-04-18T05:30:07.759Z,4.40
2023-04-18T05:32:35.088Z,4.40
2023-04-18T05:35:02.149Z,4.32
2023-04-18T05:37:31.076Z,4.34
2023-04-18T05:40:00.740Z,4.30
2023-04-18T05:42:29.460Z,4.30
2023-04-18T05:44:56.190Z,4.30
2023-04-18T05:47:28.191Z,4.30
2023-04-18T05:49:57.121Z,4.32
2023-04-18T05:52:25.564Z,4.40
2023-04-18T05:54:52.878Z,4.50
2023-04-18T05:57:20.257Z,4.50
2023-04-18T05:59:46.994Z,4.42
2023-04-18T06:02:14.917Z,4.36
2023-04-18T06:04:44.497Z,4.30
2023-04-18T06:07:11.633Z,4.30
2023-04-18T06:09:38.334Z,4.40
2023-04-18T06:12:06.631Z,4.40
2023-04-18T06:14:33.837Z,4.50
2023-04-18T06:17:00.782Z,4.50
2023-04-18T06:19:29.180Z,4.60
2023-04-18T06:21:58.188Z,4.70
2023-04-18T06:24:27.991Z,4.70
2023-04-18T06:26:57.783Z,4.80
2023-04-18T06:29:30.772Z,4.90
2023-04-18T06:31:58.794Z,4.90
2023-04-18T06:34:25.785Z,5.00
2023-04-18T06:36:53.768Z,5.10
2023-04-18T06:39:20.877Z,5.10
2023-04-18T06:41:50.448Z,5.20
2023-04-18T06:44:17.347Z,5.20
2023-04-18T06:46:48.792Z,5.38
2023-04-18T06:49:18.435Z,5.42
2023-04-18T06:51:45.505Z,5.50
2023-04-18T06:54:12.356Z,5.60
2023-04-18T06:56:39.318Z,5.70
2023-04-18T06:59:06.319Z,5.80
2023-04-18T07:01:33.704Z,5.80
2023-04-18T07:04:02.718Z,5.80
2023-04-18T07:06:29.566Z,5.82
2023-04-18T07:09:01.963Z,5.90
2023-04-18T07:11:30.072Z,5.90
2023-04-18T07:13:59.852Z,6.00
2023-04-18T07:16:29.061Z,6.10
2023-04-18T07:18:57.042Z,6.20
2023-04-18T07:21:26.931Z,6.30
2023-04-18T07:23:53.781Z,6.30
2023-04-18T07:26:20.832Z,6.40
2023-04-18T07:28:49.262Z,6.50
2023-04-18T07:31:18.366Z,6.60
2023-04-18T07:33:47.711Z,6.64
2023-04-18T07:36:19.490Z,6.74
2023-04-18T07:38:47.456Z,6.90
2023-04-18T07:41:19.223Z,6.96
2023-04-18T07:43:45.923Z,7.00
2023-04-18T07:46:12.939Z,7.10
2023-04-18T07:48:40.100Z,7.20
2023-04-18T07:51:10.684Z,7.26
2023-04-18T07:53:40.448Z,7.30
2023-04-18T07:56:07.182Z,7.40
2023-04-18T07:58:35.512Z,7.50
2023-04-18T08:01:07.132Z,7.60
2023-04-18T08:03:39.009Z,7.70
2023-04-18T08:06:07.396Z,7.80
2023-04-18T08:08:37.282Z,7.86
2023-04-18T08:11:04.056Z,7.90
2023-04-18T08:13:31.025Z,8.00
2023-04-18T08:15:59.220Z,8.00
2023-04-18T08:18:26.512Z,8.10
2023-04-18T08:20:53.368Z,8.20
2023-04-18T08:23:20.949Z,8.30
2023-04-18T08:25:47.917Z,8.40
2023-04-18T08:28:15.103Z,8.50
2023-04-18T08:30:43.655Z,8.60
2023-04-18T08:33:19.408Z,8.70
2023-04-18T08:35:46.840Z,8.80
2023-04-18T08:38:14.267Z,8.90
2023-04-18T08:40:43.455Z,9.00
2023-04-18T08:43:16.085Z,9.10
2023-04-18T08:45:45.612Z,9.26
2023-04-18T08:48:17.584Z,9.30
2023-04-18T08:50:50.112Z,9.50
2023-04-18T08:53:18.148Z,9.60
2023-04-18T08:55:50.135Z,9.70
2023-04-18T08:58:25.065Z,9.80
2023-04-18T09:00:56.375Z,9.90
2023-04-18T09:03:43.881Z,10.06
2023-04-18T09:06:35.827Z,10.20
2023-04-18T09:09:04.592Z,10.30
2023-04-18T09:11:33.777Z,10.40
2023-04-18T09:14:00.933Z,10.42
2023-04-18T09:16:28.628Z,10.56
2023-04-18T09:19:17.895Z,10.60
2023-04-18T09:21:48.076Z,10.70
2023-04-18T09:24:31.913Z,10.80
2023-04-18T09:27:00.778Z,10.90
2023-04-18T09:29:51.307Z,11.00
2023-04-18T09:32:24.583Z,11.02
2023-04-18T09:35:01.385Z,11.20
2023-04-18T09:37:30.119Z,11.30
2023-04-18T09:39:56.509Z,11.42
2023-04-18T09:42:25.053Z,11.58
2023-04-18T09:45:07.641Z,11.60
2023-04-18T09:47:37.099Z,11.70
2023-04-18T09:50:07.945Z,11.80
2023-04-18T09:52:37.847Z,11.90
2023-04-18T09:55:09.237Z,12.06
2023-04-18T09:57:42.581Z,12.20
2023-04-18T10:00:23.434Z,12.30
2023-04-18T10:02:58.507Z,12.40
2023-04-18T10:05:34.068Z,12.40
2023-04-18T10:08:05.506Z,12.50
2023-04-18T10:10:34.010Z,12.58
2023-04-18T10:13:06.416Z,12.60
2023-04-18T10:15:33.677Z,12.70
2023-04-18T10:18:10.822Z,12.90
2023-04-18T10:20:41.169Z,13.00
2023-04-18T10:23:35.660Z,13.10
2023-04-18T10:26:09.270Z,13.30
2023-04-18T10:28:58.980Z,13.40
2023-04-18T10:31:28.330Z,13.48
2023-04-18T10:36:30.549Z,13.60
2023-04-18T10:39:21.314Z,13.60
2023-04-18T10:41:50.986Z,13.60
2023-04-18T10:44:24.257Z,13.70
2023-04-18T10:46:56.842Z,13.80
2023-04-18T10:49:33.000Z,14.00
2023-04-18T10:52:02.598Z,14.10
2023-04-18T10:54:38.628Z,14.20
2023-04-18T10:57:08.365Z,14.30
2023-04-18T10:59:41.150Z,14.50
2023-04-18T11:02:26.606Z,14.60
2023-04-18T11:04:56.233Z,14.78
2023-04-18T11:07:39.800Z,14.92
2023-04-18T11:10:09.593Z,15.10
2023-04-18T11:12:40.948Z,15.14
2023-04-18T11:15:28.592Z,15.20
2023-04-18T11:18:03.615Z,15.40
2023-04-18T11:20:41.667Z,15.60
2023-04-18T11:23:24.710Z,15.80
2023-04-18T11:25:58.737Z,16.00
2023-04-18T11:28:26.224Z,16.18
2023-04-18T11:30:59.742Z,16.30
2023-04-18T11:33:30.048Z,16.50
2023-04-18T11:36:03.893Z,16.68
2023-04-18T11:38:31.792Z,16.90
2023-04-18T11:40:58.767Z,17.10
2023-04-18T11:43:25.760Z,17.30
2023-04-18T11:45:58.520Z,17.46
2023-04-18T11:48:44.522Z,17.50
2023-04-18T11:51:31.670Z,17.64
2023-04-18T11:53:58.730Z,17.70
2023-04-18T11:56:25.468Z,17.80
2023-04-18T11:58:53.917Z,17.90
2023-04-18T12:01:24.764Z,17.90
2023-04-18T12:04:06.690Z,18.00
2023-04-18T12:06:53.285Z,17.88
2023-04-18T12:09:25.658Z,17.80
2023-04-18T12:12:03.342Z,17.70
2023-04-18T12:14:39.177Z,17.60
2023-04-18T12:17:06.110Z,17.40
2023-04-18T12:19:33.648Z,17.30
2023-04-18T12:22:06.850Z,17.18
2023-04-18T12:24:37.315Z,17.08
2023-04-18T12:27:04.531Z,17.24
2023-04-18T12:29:35.159Z,17.58
2023-04-18T12:32:02.137Z,17.70
2023-04-18T12:34:30.193Z,17.60
2023-04-18T12:36:58.351Z,17.80
2023-04-18T12:39:25.992Z,17.96
2023-04-18T12:41:54.054Z,18.10
2023-04-18T12:44:24.087Z,18.24
2023-04-18T12:46:50.689Z,18.40
2023-04-18T12:49:17.221Z,18.50
2023-04-18T12:51:44.028Z,18.56
2023-04-18T12:54:10.770Z,18.40
2023-04-18T12:56:37.400Z,18.20
2023-04-18T12:59:05.121Z,18.10
2023-04-18T13:01:33.439Z,18.10
2023-04-18T13:04:11.481Z,18.10
2023-04-18T13:06:39.825Z,18.24
2023-04-18T13:09:09.713Z,18.50
2023-04-18T13:11:36.422Z,18.72
2023-04-18T13:14:03.682Z,18.68
2023-04-18T13:16:30.978Z,18.50
2023-04-18T13:18:57.859Z,18.30
2023-04-18T13:21:26.282Z,18.30
2023-04-18T13:23:55.155Z,18.40
2023-04-18T13:26:22.627Z,18.40
2023-04-18T13:28:50.962Z,18.50
2023-04-18T13:31:17.740Z,18.50
2023-04-18T13:33:45.823Z,18.40
2023-04-18T13:36:14.903Z,18.46
2023-04-18T13:38:41.953Z,18.60
2023-04-18T13:41:12.905Z,18.80
2023-04-18T13:43:40.330Z,18.80
2023-04-18T13:46:08.281Z,18.90
2023-04-18T13:48:34.832Z,18.92
2023-04-18T13:51:02.631Z,18.90
2023-04-18T13:53:32.171Z,18.80
2023-04-18T13:56:01.057Z,18.82
2023-04-18T13:58:27.639Z,18.90
2023-04-18T14:00:55.470Z,18.92
2023-04-18T14:03:22.407Z,18.90
2023-04-18T14:05:50.983Z,18.80
2023-04-18T14:08:17.432Z,18.70
2023-04-18T14:10:44.492Z,18.70
2023-04-18T14:13:15.048Z,18.84
2023-04-18T14:15:41.493Z,18.90
2023-04-18T14:18:08.092Z,18.80
2023-04-18T14:20:36.052Z,18.60
2023-04-18T14:23:04.565Z,18.50
2023-04-18T14:25:31.225Z,18.58
2023-04-18T14:28:10.187Z,18.70
2023-04-18T14:30:40.187Z,18.70
2023-04-18T14:33:09.047Z,18.70
2023-04-18T14:35:35.953Z,18.70
2023-04-18T14:38:08.451Z,18.80
2023-04-18T14:40:35.769Z,18.86
2023-04-18T14:43:03.042Z,19.00
2023-04-18T14:45:34.016Z,18.98
2023-04-18T14:48:01.376Z,19.00
2023-04-18T14:50:31.065Z,19.10
2023-04-18T14:52:59.226Z,19.10
2023-04-18T14:55:26.818Z,19.00
2023-04-18T14:57:56.819Z,19.00
2023-04-18T15:00:23.541Z,19.00
2023-04-18T15:02:51.993Z,19.10
2023-04-18T15:05:23.800Z,19.14
2023-04-18T15:07:51.908Z,19.02
2023-04-18T15:10:21.800Z,19.10
2023-04-18T15:12:48.784Z,19.00
2023-04-18T15:15:21.244Z,19.10
2023-04-18T15:17:47.749Z,19.20
2023-04-18T15:20:15.157Z,19.30
2023-04-18T15:22:41.595Z,19.40
2023-04-18T15:25:08.674Z,19.50
2023-04-18T15:27:36.745Z,19.50
2023-04-18T15:30:12.239Z,19.50
2023-04-18T15:32:41.505Z,19.60
2023-04-18T15:35:11.217Z,19.60
2023-04-18T15:37:37.868Z,19.62
2023-04-18T15:40:08.913Z,19.70
2023-04-18T15:42:36.548Z,19.70
2023-04-18T15:45:04.349Z,19.70
2023-04-18T15:47:55.978Z,19.80
2023-04-18T15:50:23.932Z,19.90
2023-04-18T15:52:50.524Z,20.00
2023-04-18T15:55:18.244Z,20.10
2023-04-18T15:57:46.187Z,20.20
2023-04-18T16:00:15.578Z,20.20
2023-04-18T16:02:46.755Z,20.20
2023-04-18T16:05:14.498Z,20.20
2023-04-18T16:07:44.170Z,20.10
2023-04-18T16:10:13.286Z,20.00
2023-04-18T16:12:41.051Z,19.98
2023-04-18T16:15:10.228Z,20.00
2023-04-18T16:17:37.906Z,20.10
2023-04-18T16:20:07.499Z,20.08
2023-04-18T16:22:35.062Z,19.90
2023-04-18T16:25:03.781Z,19.70
2023-04-18T16:27:32.363Z,19.56
2023-04-18T16:30:01.079Z,19.68
2023-04-18T16:32:29.756Z,19.80
2023-04-18T16:34:57.734Z,19.80
2023-04-18T16:37:25.916Z,19.60
2023-04-18T16:39:52.609Z,19.30
2023-04-18T16:42:19.188Z,19.20
2023-04-18T16:44:47.616Z,19.10
2023-04-18T16:47:14.380Z,19.14
2023-04-18T16:49:44.448Z,19.18
2023-04-18T16:52:14.821Z,19.02
2023-04-18T16:54:41.815Z,19.08
2023-04-18T16:57:08.304Z,19.10
2023-04-18T16:59:36.812Z,19.00
2023-04-18T17:02:05.109Z,18.90
2023-04-18T17:04:33.762Z,18.90
2023-04-18T17:07:03.794Z,19.00
2023-04-18T17:09:33.720Z,19.00
2023-04-18T17:12:01.273Z,19.10
2023-04-18T17:14:28.364Z,19.00
2023-04-18T17:16:55.182Z,18.90
2023-04-18T17:19:23.463Z,18.80
2023-04-18T17:21:51.537Z,18.70
2023-04-18T17:24:22.182Z,18.50
2023-04-18T17:26:49.054Z,18.36
2023-04-18T17:29:16.216Z,18.10
2023-04-18T17:31:46.398Z,17.90
2023-04-18T17:34:15.069Z,17.70
2023-04-18T17:36:44.973Z,17.60
2023-04-18T17:39:22.417Z,17.48
2023-04-18T17:41:50.377Z,17.30
2023-04-18T17:44:16.782Z,17.22
2023-04-18T17:46:45.089Z,17.10
2023-04-18T17:49:20.066Z,17.00
2023-04-18T17:51:47.634Z,16.90
2023-04-18T17:54:15.778Z,16.84
2023-04-18T17:56:44.860Z,16.80
2023-04-18T17:59:11.630Z,16.70
2023-04-18T18:01:39.446Z,16.60
2023-04-18T18:04:08.932Z,16.60
2023-04-18T18:06:35.571Z,16.50
2023-04-18T18:09:02.797Z,16.40
2023-04-18T18:11:29.871Z,16.40
2023-04-18T18:13:56.875Z,16.30
2023-04-18T18:16:26.143Z,16.16
2023-04-18T18:18:54.082Z,16.00
2023-04-18T18:21:21.639Z,15.76
2023-04-18T18:23:48.113Z,15.40
2023-04-18T18:26:14.692Z,15.10
2023-04-18T18:28:41.228Z,14.90
2023-04-18T18:31:08.654Z,14.74
2023-04-18T18:33:36.699Z,14.50
2023-04-18T18:36:06.711Z,14.30
2023-04-18T18:38:34.240Z,14.10
2023-04-18T18:41:03.628Z,13.94
2023-04-18T18:43:32.712Z,13.72
2023-04-18T18:46:01.011Z,13.50
2023-04-18T18:48:28.687Z,13.40
2023-04-18T18:50:56.654Z,13.30
2023-04-18T18:53:23.091Z,13.20
2023-04-18T18:55:51.657Z,13.10
2023-04-18T18:58:18.300Z,13.00
2023-04-18T19:00:48.489Z,12.90
2023-04-18T19:03:18.352Z,12.90
2023-04-18T19:05:46.875Z,12.70
2023-04-18T19:08:14.828Z,12.66
2023-04-18T19:10:42.769Z,12.46
2023-04-18T19:13:09.867Z,12.20
2023-04-18T19:15:47.799Z,12.00
2023-04-18T19:18:18.257Z,11.90
2023-04-18T19:20:52.490Z,11.70
2023-04-18T19:23:19.309Z,11.70
2023-04-18T19:25:46.828Z,11.60
2023-04-18T19:28:18.384Z,11.42
2023-04-18T19:30:47.036Z,11.20
2023-04-18T19:33:13.910Z,11.00
2023-04-18T19:35:41.011Z,10.90
2023-04-18T19:38:08.802Z,10.80
2023-04-18T19:40:38.448Z,10.70
2023-04-18T19:43:05.543Z,10.60
2023-04-18T19:45:34.418Z,10.50
2023-04-18T19:48:03.367Z,10.40
2023-04-18T19:50:32.233Z,10.30
2023-04-18T19:53:00.471Z,10.20
2023-04-18T19:55:28.755Z,10.10
2023-04-18T19:57:59.625Z,10.10
2023-04-18T20:00:27.120Z,10.10
2023-04-18T20:02:54.968Z,10.00
2023-04-18T20:05:21.937Z,9.90
2023-04-18T20:07:50.368Z,9.90
2023-04-18T20:10:21.892Z,9.90
2023-04-18T20:12:50.038Z,9.90
2023-04-18T20:15:18.044Z,9.90
2023-04-18T20:17:47.768Z,9.90
2023-04-18T20:20:14.960Z,9.80
2023-04-18T20:22:44.081Z,9.80
2023-04-18T20:25:10.753Z,9.80
2023-04-18T20:27:37.308Z,9.80
2023-04-18T20:30:08.043Z,9.80
2023-04-18T20:32:35.236Z,9.70
2023-04-18T20:35:04.317Z,9.60
2023-04-18T20:37:40.631Z,9.60
2023-04-18T20:40:09.390Z,9.60
2023-04-18T20:42:38.138Z,9.50
2023-04-18T20:45:10.261Z,9.50
2023-04-18T20:47:36.978Z,9.50
2023-04-18T20:50:03.941Z,9.60
2023-04-18T20:52:30.476Z,9.60
2023-04-18T20:54:56.997Z,9.60
2023-04-18T20:57:23.593Z,9.60
2023-04-18T20:59:50.134Z,9.50
2023-04-18T21:02:18.604Z,9.40
2023-04-18T21:04:46.361Z,9.30
2023-04-18T21:07:13.793Z,9.20
2023-04-18T21:09:40.978Z,9.10
2023-04-18T21:12:07.495Z,9.00
2023-04-18T21:14:33.939Z,9.00
2023-04-18T21:17:01.176Z,9.04
2023-04-18T21:19:28.060Z,9.00
2023-04-18T21:21:54.473Z,8.90
2023-04-18T21:24:24.657Z,8.80
2023-04-18T21:26:52.532Z,8.80
2023-04-18T21:29:21.041Z,8.80
2023-04-18T21:31:49.685Z,8.70
2023-04-18T21:34:16.745Z,8.70
2023-04-18T21:36:43.545Z,8.60
2023-04-18T21:39:11.938Z,8.60
2023-04-18T21:41:38.578Z,8.60
2023-04-18T21:44:06.062Z,8.50
2023-04-18T21:46:32.908Z,8.50
2023-04-18T21:49:03.557Z,8.40
2023-04-18T21:51:31.875Z,8.30
2023-04-18T21:53:59.864Z,8.30
2023-04-18T21:56:27.006Z,8.20
2023-04-18T21:58:53.521Z,8.20
2023-04-18T22:01:20.131Z,8.10
2023-04-18T22:03:48.918Z,8.10
2023-04-18T22:06:15.665Z,8.10
2023-04-18T22:08:42.803Z,8.10
2023-04-18T22:11:11.285Z,8.00
2023-04-18T22:13:39.332Z,8.00
2023-04-18T22:16:07.585Z,7.90
2023-04-18T22:18:37.618Z,7.80
2023-04-18T22:21:06.105Z,7.72
2023-04-18T22:23:32.643Z,7.70
2023-04-18T22:26:02.721Z,7.66
2023-04-18T22:28:32.736Z,7.64
2023-04-18T22:31:02.506Z,7.60
2023-04-18T22:33:31.603Z,7.54
2023-04-18T22:35:58.472Z,7.50
2023-04-18T22:38:25.195Z,7.40
2023-04-18T22:40:53.340Z,7.40
2023-04-18T22:43:23.336Z,7.30
2023-04-18T22:45:51.627Z,7.24
2023-04-18T22:48:19.418Z,7.20
2023-04-18T22:50:46.925Z,7.10
2023-04-18T22:53:15.791Z,7.00
2023-04-18T22:55:45.748Z,6.96
2023-04-18T22:58:13.912Z,6.90
2023-04-18T23:00:44.870Z,6.80
2023-04-18T23:03:11.985Z,6.70
2023-04-18T23:05:40.752Z,6.70
2023-04-18T23:08:07.381Z,6.60
2023-04-18T23:10:34.121Z,6.60
2023-04-18T23:13:02.003Z,6.60
2023-04-18T23:15:29.853Z,6.50
2023-04-18T23:17:56.344Z,6.40
2023-04-18T23:20:25.945Z,6.40
2023-04-18T23:22:53.262Z,6.40
2023-04-18T23:25:19.985Z,6.40
2023-04-18T23:27:47.184Z,6.30
2023-04-18T23:30:16.860Z,6.30
2023-04-18T23:32:43.419Z,6.30
2023-04-18T23:35:10.988Z,6.30
2023-04-18T23:37:37.746Z,6.20
2023-04-18T23:40:09.487Z,6.20
2023-04-18T23:42:37.205Z,6.10
2023-04-18T23:45:05.200Z,5.92
2023-04-18T23:47:32.583Z,5.80
2023-04-18T23:49:59.352Z,5.80
2023-04-18T23:52:25.818Z,5.80
2023-04-18T23:54:52.998Z,5.70
2023-04-18T23:57:19.974Z,5.70
2023-04-18T23:59:46.800Z,5.70
